sensor_id;sensor_type;location;lat;lon;timestamp;pressure;altitude;pressure_sealevel;temperature;humidity
71778;BME280;59609;52.430;4.668;2022-08-04T00:02:21;101440.44;;;19.76;84.47
71778;BME280;59609;52.430;4.668;2022-08-04T00:04:57;101438.06;;;19.73;85.80
71778;BME280;59609;52.430;4.668;2022-08-04T00:10:01;101436.31;;;19.65;84.05
71778;BME280;59609;52.430;4.668;2022-08-04T00:12:28;101441.91;;;19.65;84.85
71778;BME280;59609;52.430;4.668;2022-08-04T00:14:58;101441.47;;;19.62;84.32
71778;BME280;59609;52.430;4.668;2022-08-04T00:17:30;101432.44;;;19.60;85.34
71778;BME280;59609;52.430;4.668;2022-08-04T00:19:59;101435.44;;;19.58;86.61
71778;BME280;59609;52.430;4.668;2022-08-04T00:22:30;101436.53;;;19.57;85.92
71778;BME280;59609;52.430;4.668;2022-08-04T00:24:57;101432.00;;;19.56;86.50
71778;BME280;59609;52.430;4.668;2022-08-04T00:27:31;101429.63;;;19.53;85.93
71778;BME280;59609;52.430;4.668;2022-08-04T00:29:57;101430.50;;;19.53;86.15
71778;BME280;59609;52.430;4.668;2022-08-04T00:32:25;101435.22;;;19.53;86.34
71778;BME280;59609;52.430;4.668;2022-08-04T00:34:51;101426.22;;;19.51;88.49
71778;BME280;59609;52.430;4.668;2022-08-04T00:37:20;101421.69;;;19.50;88.84
71778;BME280;59609;52.430;4.668;2022-08-04T00:39:46;101423.84;;;19.48;87.66
71778;BME280;59609;52.430;4.668;2022-08-04T00:42:33;101422.53;;;19.50;87.93
71778;BME280;59609;52.430;4.668;2022-08-04T00:47:46;101422.75;;;19.56;87.91
71778;BME280;59609;52.430;4.668;2022-08-04T00:50:29;101427.03;;;19.51;86.84
71778;BME280;59609;52.430;4.668;2022-08-04T00:56:14;101418.03;;;19.56;87.71
71778;BME280;59609;52.430;4.668;2022-08-04T01:01:59;101423.19;;;19.52;87.40
71778;BME280;59609;52.430;4.668;2022-08-04T01:04:33;101418.03;;;19.49;87.42
71778;BME280;59609;52.430;4.668;2022-08-04T01:12:36;101431.56;;;19.52;89.53
71778;BME280;59609;52.430;4.668;2022-08-04T01:18:03;101421.03;;;19.48;88.35
71778;BME280;59609;52.430;4.668;2022-08-04T01:24:09;101421.25;;;19.46;88.31
71778;BME280;59609;52.430;4.668;2022-08-04T01:29:15;101422.09;;;19.47;89.82
71778;BME280;59609;52.430;4.668;2022-08-04T01:32:06;101421.69;;;19.50;89.19
71778;BME280;59609;52.430;4.668;2022-08-04T01:34:35;101421.25;;;19.46;88.86
71778;BME280;59609;52.430;4.668;2022-08-04T01:37:11;101412.59;;;19.41;90.09
71778;BME280;59609;52.430;4.668;2022-08-04T01:39:59;101411.94;;;19.39;89.73
71778;BME280;59609;52.430;4.668;2022-08-04T01:42:27;101408.28;;;19.39;91.23
71778;BME280;59609;52.430;4.668;2022-08-04T01:44:57;101404.16;;;19.35;93.03
71778;BME280;59609;52.430;4.668;2022-08-04T01:47:28;101404.59;;;19.32;92.55
71778;BME280;59609;52.430;4.668;2022-08-04T01:49:54;101402.66;;;19.26;91.08
71778;BME280;59609;52.430;4.668;2022-08-04T01:52:26;101409.53;;;19.30;91.46
71778;BME280;59609;52.430;4.668;2022-08-04T01:54:53;101408.69;;;19.29;91.39
71778;BME280;59609;52.430;4.668;2022-08-04T01:57:21;101412.16;;;19.38;91.82
71778;BME280;59609;52.430;4.668;2022-08-04T01:59:50;101406.56;;;19.38;91.57
71778;BME280;59609;52.430;4.668;2022-08-04T02:02:16;101392.78;;;19.30;91.11
71778;BME280;59609;52.430;4.668;2022-08-04T02:04:41;101397.31;;;19.31;90.99
71778;BME280;59609;52.430;4.668;2022-08-04T02:07:22;101397.72;;;19.28;90.29
71778;BME280;59609;52.430;4.668;2022-08-04T02:15:11;101399.22;;;19.24;89.38
71778;BME280;59609;52.430;4.668;2022-08-04T02:20:54;101387.78;;;19.19;90.92
71778;BME280;59609;52.430;4.668;2022-08-04T02:23:36;101391.25;;;19.21;91.10
71778;BME280;59609;52.430;4.668;2022-08-04T02:26:16;101384.81;;;19.20;91.34
71778;BME280;59609;52.430;4.668;2022-08-04T02:29:01;101380.50;;;19.18;90.67
71778;BME280;59609;52.430;4.668;2022-08-04T02:34:14;101388.63;;;19.13;90.87
71778;BME280;59609;52.430;4.668;2022-08-04T02:36:42;101387.56;;;19.07;90.09
71778;BME280;59609;52.430;4.668;2022-08-04T02:39:09;101390.53;;;19.06;89.92
71778;BME280;59609;52.430;4.668;2022-08-04T02:41:36;101379.38;;;19.06;89.71
71778;BME280;59609;52.430;4.668;2022-08-04T02:44:04;101387.31;;;19.09;91.30
71778;BME280;59609;52.430;4.668;2022-08-04T02:46:30;101392.72;;;19.10;91.55
71778;BME280;59609;52.430;4.668;2022-08-04T02:48:57;101394.84;;;19.08;91.16
71778;BME280;59609;52.430;4.668;2022-08-04T02:51:31;101394.44;;;19.05;90.77
71778;BME280;59609;52.430;4.668;2022-08-04T02:53:59;101384.75;;;19.00;90.31
71778;BME280;59609;52.430;4.668;2022-08-04T02:56:27;101381.28;;;18.98;90.53
71778;BME280;59609;52.430;4.668;2022-08-04T02:59:04;101370.53;;;18.95;91.23
71778;BME280;59609;52.430;4.668;2022-08-04T03:01:31;101379.31;;;18.92;90.94
71778;BME280;59609;52.430;4.668;2022-08-04T03:15:22;101374.75;;;18.78;91.04
71778;BME280;59609;52.430;4.668;2022-08-04T03:20:41;101368.50;;;18.76;90.44
71778;BME280;59609;52.430;4.668;2022-08-04T03:23:33;101366.78;;;18.75;91.87
71778;BME280;59609;52.430;4.668;2022-08-04T03:37:36;101360.75;;;18.72;90.71
71778;BME280;59609;52.430;4.668;2022-08-04T03:40:33;101357.97;;;18.72;90.79
71778;BME280;59609;52.430;4.668;2022-08-04T03:51:05;101361.66;;;18.79;93.12
71778;BME280;59609;52.430;4.668;2022-08-04T03:56:55;101353.06;;;18.80;92.13
71778;BME280;59609;52.430;4.668;2022-08-04T04:23:51;101353.53;;;18.84;92.16
71778;BME280;59609;52.430;4.668;2022-08-04T04:29:27;101350.50;;;18.85;92.35
71778;BME280;59609;52.430;4.668;2022-08-04T04:34:38;101347.50;;;18.87;92.75
71778;BME280;59609;52.430;4.668;2022-08-04T04:48:05;101351.44;;;19.06;93.22
71778;BME280;59609;52.430;4.668;2022-08-04T04:53:23;101353.00;;;19.15;93.76
71778;BME280;59609;52.430;4.668;2022-08-04T04:59:00;101354.50;;;19.24;94.01
71778;BME280;59609;52.430;4.668;2022-08-04T05:01:51;101361.84;;;19.31;93.29
71778;BME280;59609;52.430;4.668;2022-08-04T05:10:10;101360.16;;;19.43;93.79
71778;BME280;59609;52.430;4.668;2022-08-04T05:13:04;101372.44;;;19.49;93.68
71778;BME280;59609;52.430;4.668;2022-08-04T05:15:39;101373.53;;;19.55;93.59
71778;BME280;59609;52.430;4.668;2022-08-04T05:18:08;101378.47;;;19.59;94.08
71778;BME280;59609;52.430;4.668;2022-08-04T05:20:40;101363.63;;;19.65;93.83
71778;BME280;59609;52.430;4.668;2022-08-04T05:23:14;101364.72;;;19.71;93.85
71778;BME280;59609;52.430;4.668;2022-08-04T05:25:53;101367.09;;;19.74;93.71
71778;BME280;59609;52.430;4.668;2022-08-04T05:28:36;101356.09;;;19.72;93.22
71778;BME280;59609;52.430;4.668;2022-08-04T05:31:13;101367.72;;;19.82;93.56
71778;BME280;59609;52.430;4.668;2022-08-04T05:36:13;101366.03;;;19.88;92.79
71778;BME280;59609;52.430;4.668;2022-08-04T05:38:41;101373.13;;;19.90;92.75
71778;BME280;59609;52.430;4.668;2022-08-04T05:41:09;101374.44;;;19.94;92.74
71778;BME280;59609;52.430;4.668;2022-08-04T05:43:38;101366.22;;;19.99;92.69
71778;BME280;59609;52.430;4.668;2022-08-04T05:46:07;101378.91;;;20.02;92.88
71778;BME280;59609;52.430;4.668;2022-08-04T05:48:35;101388.19;;;20.02;93.08
71778;BME280;59609;52.430;4.668;2022-08-04T05:51:03;101385.38;;;20.02;93.06
71778;BME280;59609;52.430;4.668;2022-08-04T05:53:30;101382.16;;;19.99;93.33
71778;BME280;59609;52.430;4.668;2022-08-04T05:55:57;101385.63;;;20.01;93.35
71778;BME280;59609;52.430;4.668;2022-08-04T05:58:28;101386.25;;;20.03;93.44
71778;BME280;59609;52.430;4.668;2022-08-04T06:00:54;101385.16;;;20.11;92.92
71778;BME280;59609;52.430;4.668;2022-08-04T06:03:21;101385.59;;;20.14;92.93
71778;BME280;59609;52.430;4.668;2022-08-04T06:05:48;101388.59;;;20.13;92.80
71778;BME280;59609;52.430;4.668;2022-08-04T06:08:14;101386.25;;;20.10;93.13
71778;BME280;59609;52.430;4.668;2022-08-04T06:10:41;101386.66;;;20.13;92.96
71778;BME280;59609;52.430;4.668;2022-08-04T06:13:13;101394.41;;;20.24;92.27
71778;BME280;59609;52.430;4.668;2022-08-04T06:15:43;101393.78;;;20.29;92.04
71778;BME280;59609;52.430;4.668;2022-08-04T06:18:11;101387.53;;;20.33;91.85
71778;BME280;59609;52.430;4.668;2022-08-04T06:20:38;101390.34;;;20.40;91.22
71778;BME280;59609;52.430;4.668;2022-08-04T06:23:07;101386.66;;;20.46;90.90
71778;BME280;59609;52.430;4.668;2022-08-04T06:25:47;101384.72;;;20.53;90.46
71778;BME280;59609;52.430;4.668;2022-08-04T06:28:15;101380.31;;;20.83;89.26
71778;BME280;59609;52.430;4.668;2022-08-04T06:30:42;101389.09;;;20.93;88.69
71778;BME280;59609;52.430;4.668;2022-08-04T06:33:13;101392.94;;;20.99;88.23
71778;BME280;59609;52.430;4.668;2022-08-04T06:35:53;101397.47;;;21.13;87.35
71778;BME280;59609;52.430;4.668;2022-08-04T06:38:24;101385.34;;;21.19;86.60
71778;BME280;59609;52.430;4.668;2022-08-04T06:40:50;101396.91;;;21.36;85.66
71778;BME280;59609;52.430;4.668;2022-08-04T06:43:16;101399.75;;;21.67;84.77
71778;BME280;59609;52.430;4.668;2022-08-04T06:45:43;101400.09;;;21.77;83.36
71778;BME280;59609;52.430;4.668;2022-08-04T06:48:11;101388.75;;;21.97;81.60
71778;BME280;59609;52.430;4.668;2022-08-04T06:50:38;101401.47;;;21.99;80.32
71778;BME280;59609;52.430;4.668;2022-08-04T06:53:05;101396.94;;;21.98;79.08
71778;BME280;59609;52.430;4.668;2022-08-04T06:55:32;101402.13;;;22.01;78.40
71778;BME280;59609;52.430;4.668;2022-08-04T06:57:58;101411.66;;;21.94;78.61
71778;BME280;59609;52.430;4.668;2022-08-04T07:00:25;101414.06;;;22.15;77.33
71778;BME280;59609;52.430;4.668;2022-08-04T07:02:52;101415.25;;;22.50;75.98
71778;BME280;59609;52.430;4.668;2022-08-04T07:05:18;101415.06;;;22.45;74.43
71778;BME280;59609;52.430;4.668;2022-08-04T07:07:45;101418.78;;;22.64;73.23
71778;BME280;59609;52.430;4.668;2022-08-04T07:10:11;101420.28;;;22.42;71.81
71778;BME280;59609;52.430;4.668;2022-08-04T07:12:39;101426.16;;;22.40;72.11
71778;BME280;59609;52.430;4.668;2022-08-04T07:15:06;101420.88;;;22.50;72.45
71778;BME280;59609;52.430;4.668;2022-08-04T07:17:35;101426.97;;;22.66;72.24
71778;BME280;59609;52.430;4.668;2022-08-04T07:20:04;101423.59;;;23.00;71.66
71778;BME280;59609;52.430;4.668;2022-08-04T07:22:30;101428.19;;;23.13;69.83
71778;BME280;59609;52.430;4.668;2022-08-04T07:24:57;101422.22;;;23.39;68.70
71778;BME280;59609;52.430;4.668;2022-08-04T07:27:24;101431.94;;;23.43;68.58
71778;BME280;59609;52.430;4.668;2022-08-04T07:29:50;101432.88;;;23.37;68.02
71778;BME280;59609;52.430;4.668;2022-08-04T07:32:19;101434.06;;;23.47;65.17
71778;BME280;59609;52.430;4.668;2022-08-04T07:34:46;101422.06;;;23.52;63.13
71778;BME280;59609;52.430;4.668;2022-08-04T07:37:12;101435.72;;;23.67;63.31
71778;BME280;59609;52.430;4.668;2022-08-04T07:39:38;101435.50;;;23.68;63.37
71778;BME280;59609;52.430;4.668;2022-08-04T07:42:04;101438.91;;;24.00;62.77
71778;BME280;59609;52.430;4.668;2022-08-04T07:44:30;101439.59;;;23.95;60.16
71778;BME280;59609;52.430;4.668;2022-08-04T07:46:57;101437.44;;;24.09;59.97
71778;BME280;59609;52.430;4.668;2022-08-04T07:49:23;101436.06;;;24.00;59.63
71778;BME280;59609;52.430;4.668;2022-08-04T07:51:50;101439.56;;;24.25;57.87
71778;BME280;59609;52.430;4.668;2022-08-04T07:54:16;101436.56;;;24.38;57.82
71778;BME280;59609;52.430;4.668;2022-08-04T07:56:42;101441.94;;;24.40;57.77
71778;BME280;59609;52.430;4.668;2022-08-04T07:59:08;101439.72;;;24.30;57.92
71778;BME280;59609;52.430;4.668;2022-08-04T08:01:35;101448.16;;;24.42;57.71
71778;BME280;59609;52.430;4.668;2022-08-04T08:04:01;101449.16;;;24.59;57.59
71778;BME280;59609;52.430;4.668;2022-08-04T08:06:28;101444.28;;;24.78;57.26
71778;BME280;59609;52.430;4.668;2022-08-04T08:08:55;101444.44;;;24.94;55.66
71778;BME280;59609;52.430;4.668;2022-08-04T08:11:20;101445.16;;;25.01;55.16
71778;BME280;59609;52.430;4.668;2022-08-04T08:13:45;101457.63;;;25.05;54.42
71778;BME280;59609;52.430;4.668;2022-08-04T08:16:11;101450.53;;;25.15;53.61
71778;BME280;59609;52.430;4.668;2022-08-04T08:18:37;101455.94;;;25.04;54.54
71778;BME280;59609;52.430;4.668;2022-08-04T08:21:03;101453.16;;;25.33;54.26
71778;BME280;59609;52.430;4.668;2022-08-04T08:23:30;101462.75;;;25.32;52.87
71778;BME280;59609;52.430;4.668;2022-08-04T08:25:56;101457.66;;;25.45;53.18
71778;BME280;59609;52.430;4.668;2022-08-04T08:28:22;101453.03;;;25.51;52.61
71778;BME280;59609;52.430;4.668;2022-08-04T08:30:48;101458.97;;;25.66;51.20
71778;BME280;59609;52.430;4.668;2022-08-04T08:33:14;101447.84;;;25.59;50.69
71778;BME280;59609;52.430;4.668;2022-08-04T08:35:55;101451.06;;;26.08;51.03
71778;BME280;59609;52.430;4.668;2022-08-04T08:38:52;101460.69;;;26.12;49.00
71778;BME280;59609;52.430;4.668;2022-08-04T08:47:19;101468.63;;;25.82;45.49
71778;BME280;59609;52.430;4.668;2022-08-04T08:52:54;101468.44;;;25.72;45.65
71778;BME280;59609;52.430;4.668;2022-08-04T08:55:47;101454.59;;;25.87;45.53
71778;BME280;59609;52.430;4.668;2022-08-04T09:12:11;101479.56;;;25.78;46.83
71778;BME280;59609;52.430;4.668;2022-08-04T09:14:59;101478.34;;;25.74;46.95
71778;BME280;59609;52.430;4.668;2022-08-04T09:17:34;101472.78;;;25.79;46.48
71778;BME280;59609;52.430;4.668;2022-08-04T09:20:09;101479.72;;;26.28;45.91
71778;BME280;59609;52.430;4.668;2022-08-04T09:22:46;101469.09;;;26.69;44.74
71778;BME280;59609;52.430;4.668;2022-08-04T09:25:23;101476.47;;;26.86;43.97
71778;BME280;59609;52.430;4.668;2022-08-04T09:28:01;101482.28;;;26.63;44.52
71778;BME280;59609;52.430;4.668;2022-08-04T09:30:44;101481.56;;;26.23;46.49
71778;BME280;59609;52.430;4.668;2022-08-04T09:33:30;101490.69;;;26.13;44.92
71778;BME280;59609;52.430;4.668;2022-08-04T09:36:27;101486.97;;;25.96;45.16
71778;BME280;59609;52.430;4.668;2022-08-04T09:39:07;101489.19;;;25.94;46.28
71778;BME280;59609;52.430;4.668;2022-08-04T09:41:50;101491.16;;;25.93;44.63
71778;BME280;59609;52.430;4.668;2022-08-04T09:44:33;101493.75;;;25.95;46.20
71778;BME280;59609;52.430;4.668;2022-08-04T09:55:19;101498.31;;;25.33;46.18
71778;BME280;59609;52.430;4.668;2022-08-04T09:58:48;101503.63;;;25.18;46.89
71778;BME280;59609;52.430;4.668;2022-08-04T10:00:58;101503.44;;;25.36;46.61
71778;BME280;59609;52.430;4.668;2022-08-04T10:03:26;101510.16;;;25.70;45.19
71778;BME280;59609;52.430;4.668;2022-08-04T10:08:59;101516.47;;;26.45;43.91
71778;BME280;59609;52.430;4.668;2022-08-04T10:12:02;101517.56;;;26.60;44.03
71778;BME280;59609;52.430;4.668;2022-08-04T10:19:37;101512.16;;;26.42;44.57
71778;BME280;59609;52.430;4.668;2022-08-04T10:22:18;101513.19;;;26.53;44.92
71778;BME280;59609;52.430;4.668;2022-08-04T10:30:08;101524.78;;;26.51;43.80
71778;BME280;59609;52.430;4.668;2022-08-04T10:32:43;101525.09;;;26.38;44.22
71778;BME280;59609;52.430;4.668;2022-08-04T10:35:13;101518.59;;;26.38;45.55
71778;BME280;59609;52.430;4.668;2022-08-04T10:40:38;101521.25;;;26.44;43.96
71778;BME280;59609;52.430;4.668;2022-08-04T10:46:00;101527.41;;;26.13;45.17
71778;BME280;59609;52.430;4.668;2022-08-04T10:54:06;101518.03;;;27.41;43.63
71778;BME280;59609;52.430;4.668;2022-08-04T10:56:40;101535.63;;;27.86;41.07
71778;BME280;59609;52.430;4.668;2022-08-04T10:59:29;101532.75;;;28.30;39.73
71778;BME280;59609;52.430;4.668;2022-08-04T11:02:04;101532.09;;;28.23;39.94
71778;BME280;59609;52.430;4.668;2022-08-04T11:04:43;101534.22;;;27.62;40.58
71778;BME280;59609;52.430;4.668;2022-08-04T11:07:11;101535.63;;;27.86;41.61
71778;BME280;59609;52.430;4.668;2022-08-04T11:09:38;101536.50;;;28.08;40.41
71778;BME280;59609;52.430;4.668;2022-08-04T11:14:37;101540.19;;;27.87;40.47
71778;BME280;59609;52.430;4.668;2022-08-04T11:17:06;101541.25;;;27.43;41.17
71778;BME280;59609;52.430;4.668;2022-08-04T11:19:58;101546.22;;;27.52;41.03
71778;BME280;59609;52.430;4.668;2022-08-04T11:22:26;101548.53;;;27.00;42.35
71778;BME280;59609;52.430;4.668;2022-08-04T11:27:39;101558.72;;;27.18;40.88
71778;BME280;59609;52.430;4.668;2022-08-04T11:30:09;101573.25;;;27.60;40.58
71778;BME280;59609;52.430;4.668;2022-08-04T11:32:44;101562.47;;;27.79;39.02
71778;BME280;59609;52.430;4.668;2022-08-04T11:35:27;101569.09;;;27.68;39.29
71778;BME280;59609;52.430;4.668;2022-08-04T11:40:41;101567.75;;;28.67;37.05
71778;BME280;59609;52.430;4.668;2022-08-04T11:43:12;101573.72;;;28.97;36.98
71778;BME280;59609;52.430;4.668;2022-08-04T11:45:46;101573.38;;;28.62;36.23
71778;BME280;59609;52.430;4.668;2022-08-04T11:48:20;101574.50;;;28.93;35.74
71778;BME280;59609;52.430;4.668;2022-08-04T11:50:51;101579.72;;;28.21;37.26
71778;BME280;59609;52.430;4.668;2022-08-04T11:53:25;101580.78;;;27.71;38.48
71778;BME280;59609;52.430;4.668;2022-08-04T11:55:53;101581.16;;;27.80;38.96
71778;BME280;59609;52.430;4.668;2022-08-04T11:58:22;101581.91;;;28.13;38.63
71778;BME280;59609;52.430;4.668;2022-08-04T12:01:11;101582.41;;;27.89;38.10
71778;BME280;59609;52.430;4.668;2022-08-04T12:03:58;101593.19;;;28.08;37.46
71778;BME280;59609;52.430;4.668;2022-08-04T12:06:48;101591.72;;;27.46;38.88
71778;BME280;59609;52.430;4.668;2022-08-04T12:09:51;101595.69;;;27.45;40.14
71778;BME280;59609;52.430;4.668;2022-08-04T12:15:25;101596.19;;;27.42;39.28
71778;BME280;59609;52.430;4.668;2022-08-04T12:18:17;101588.25;;;27.82;38.02
71778;BME280;59609;52.430;4.668;2022-08-04T12:20:48;101590.28;;;28.52;37.59
71778;BME280;59609;52.430;4.668;2022-08-04T12:23:19;101578.53;;;28.97;36.71
71778;BME280;59609;52.430;4.668;2022-08-04T12:25:47;101585.94;;;29.35;35.57
71778;BME280;59609;52.430;4.668;2022-08-04T12:28:23;101583.66;;;29.00;35.83
71778;BME280;59609;52.430;4.668;2022-08-04T12:31:02;101583.19;;;29.13;36.29
71778;BME280;59609;52.430;4.668;2022-08-04T12:33:50;101579.53;;;28.81;35.93
71778;BME280;59609;52.430;4.668;2022-08-04T12:36:32;101589.22;;;29.58;34.32
71778;BME280;59609;52.430;4.668;2022-08-04T12:39:10;101584.16;;;29.66;34.61
71778;BME280;59609;52.430;4.668;2022-08-04T12:41:47;101585.72;;;29.41;34.25
71778;BME280;59609;52.430;4.668;2022-08-04T12:44:18;101589.06;;;29.01;34.41
71778;BME280;59609;52.430;4.668;2022-08-04T12:46:45;101591.84;;;28.96;35.53
71778;BME280;59609;52.430;4.668;2022-08-04T12:49:13;101592.78;;;28.22;37.09
71778;BME280;59609;52.430;4.668;2022-08-04T12:51:42;101590.25;;;28.03;36.66
71778;BME280;59609;52.430;4.668;2022-08-04T12:54:09;101599.53;;;27.99;37.96
71778;BME280;59609;52.430;4.668;2022-08-04T12:56:35;101603.44;;;27.71;36.75
71778;BME280;59609;52.430;4.668;2022-08-04T12:59:03;101601.06;;;27.46;37.07
71778;BME280;59609;52.430;4.668;2022-08-04T13:01:29;101609.88;;;27.67;38.94
71778;BME280;59609;52.430;4.668;2022-08-04T13:03:57;101607.22;;;27.60;39.31
71778;BME280;59609;52.430;4.668;2022-08-04T13:06:26;101612.44;;;27.68;38.46
71778;BME280;59609;52.430;4.668;2022-08-04T13:08:54;101605.03;;;27.45;39.59
71778;BME280;59609;52.430;4.668;2022-08-04T13:11:21;101618.16;;;27.73;38.91
71778;BME280;59609;52.430;4.668;2022-08-04T13:13:52;101606.41;;;28.25;38.67
71778;BME280;59609;52.430;4.668;2022-08-04T13:16:31;101609.22;;;28.73;37.69
71778;BME280;59609;52.430;4.668;2022-08-04T13:18:57;101610.91;;;28.21;37.97
71778;BME280;59609;52.430;4.668;2022-08-04T13:21:24;101616.63;;;28.04;38.65
71778;BME280;59609;52.430;4.668;2022-08-04T13:23:52;101617.47;;;28.26;38.03
71778;BME280;59609;52.430;4.668;2022-08-04T13:26:20;101616.38;;;28.05;39.44
71778;BME280;59609;52.430;4.668;2022-08-04T13:28:48;101620.84;;;28.01;38.18
71778;BME280;59609;52.430;4.668;2022-08-04T13:31:14;101620.97;;;27.51;40.12
71778;BME280;59609;52.430;4.668;2022-08-04T13:33:43;101620.53;;;27.26;38.33
71778;BME280;59609;52.430;4.668;2022-08-04T13:36:09;101616.16;;;27.69;39.60
71778;BME280;59609;52.430;4.668;2022-08-04T13:38:39;101618.59;;;27.82;38.38
71778;BME280;59609;52.430;4.668;2022-08-04T13:41:06;101615.25;;;28.06;39.15
71778;BME280;59609;52.430;4.668;2022-08-04T13:43:42;101614.47;;;27.18;40.59
71778;BME280;59609;52.430;4.668;2022-08-04T13:46:13;101629.66;;;27.45;40.80
71778;BME280;59609;52.430;4.668;2022-08-04T13:48:40;101615.47;;;27.83;40.83
71778;BME280;59609;52.430;4.668;2022-08-04T13:51:09;101614.59;;;27.61;39.64
71778;BME280;59609;52.430;4.668;2022-08-04T13:53:37;101614.28;;;27.41;41.14
71778;BME280;59609;52.430;4.668;2022-08-04T13:56:04;101625.16;;;27.16;42.46
71778;BME280;59609;52.430;4.668;2022-08-04T13:58:34;101623.34;;;27.43;42.24
71778;BME280;59609;52.430;4.668;2022-08-04T14:01:08;101617.03;;;27.19;42.03
71778;BME280;59609;52.430;4.668;2022-08-04T14:03:40;101620.97;;;27.35;42.09
71778;BME280;59609;52.430;4.668;2022-08-04T14:06:19;101618.03;;;27.63;39.89
71778;BME280;59609;52.430;4.668;2022-08-04T14:09:15;101615.91;;;27.53;40.47
71778;BME280;59609;52.430;4.668;2022-08-04T14:11:46;101629.00;;;27.59;40.28
71778;BME280;59609;52.430;4.668;2022-08-04T14:14:28;101626.47;;;27.25;38.98
71778;BME280;59609;52.430;4.668;2022-08-04T14:19:21;101622.47;;;27.97;38.08
71778;BME280;59609;52.430;4.668;2022-08-04T14:21:47;101627.66;;;27.62;38.25
71778;BME280;59609;52.430;4.668;2022-08-04T14:24:22;101623.25;;;27.71;38.72
71778;BME280;59609;52.430;4.668;2022-08-04T14:26:48;101626.09;;;27.71;38.83
71778;BME280;59609;52.430;4.668;2022-08-04T14:29:16;101628.13;;;27.76;38.20
71778;BME280;59609;52.430;4.668;2022-08-04T14:31:42;101621.66;;;28.19;37.91
71778;BME280;59609;52.430;4.668;2022-08-04T14:34:08;101622.13;;;28.10;38.23
71778;BME280;59609;52.430;4.668;2022-08-04T14:36:41;101628.56;;;28.06;38.43
71778;BME280;59609;52.430;4.668;2022-08-04T14:39:08;101625.88;;;28.64;37.85
71778;BME280;59609;52.430;4.668;2022-08-04T14:41:49;101630.31;;;27.90;38.24
71778;BME280;59609;52.430;4.668;2022-08-04T14:44:15;101629.28;;;27.41;39.25
71778;BME280;59609;52.430;4.668;2022-08-04T14:46:51;101626.72;;;28.17;37.80
71778;BME280;59609;52.430;4.668;2022-08-04T14:49:18;101627.31;;;28.19;36.79
71778;BME280;59609;52.430;4.668;2022-08-04T14:51:53;101632.50;;;28.48;37.00
71778;BME280;59609;52.430;4.668;2022-08-04T14:54:27;101619.06;;;28.17;38.17
71778;BME280;59609;52.430;4.668;2022-08-04T14:56:56;101627.78;;;27.72;39.71
71778;BME280;59609;52.430;4.668;2022-08-04T14:59:23;101625.31;;;28.41;39.07
71778;BME280;59609;52.430;4.668;2022-08-04T15:01:49;101634.16;;;28.23;37.93
71778;BME280;59609;52.430;4.668;2022-08-04T15:04:17;101621.66;;;28.19;37.63
71778;BME280;59609;52.430;4.668;2022-08-04T15:06:45;101630.31;;;27.69;39.56
71778;BME280;59609;52.430;4.668;2022-08-04T15:09:11;101628.25;;;27.64;38.99
71778;BME280;59609;52.430;4.668;2022-08-04T15:11:37;101633.81;;;27.59;38.53
71778;BME280;59609;52.430;4.668;2022-08-04T15:14:03;101635.47;;;27.22;39.47
71778;BME280;59609;52.430;4.668;2022-08-04T15:16:32;101644.56;;;27.57;37.43
71778;BME280;59609;52.430;4.668;2022-08-04T15:18:58;101641.03;;;27.50;38.25
71778;BME280;59609;52.430;4.668;2022-08-04T15:21:25;101640.84;;;27.73;38.45
71778;BME280;59609;52.430;4.668;2022-08-04T15:23:52;101647.88;;;26.87;40.88
71778;BME280;59609;52.430;4.668;2022-08-04T15:26:28;101642.53;;;26.74;40.07
71778;BME280;59609;52.430;4.668;2022-08-04T15:29:01;101645.81;;;26.83;40.86
71778;BME280;59609;52.430;4.668;2022-08-04T15:31:27;101644.78;;;26.89;41.00
71778;BME280;59609;52.430;4.668;2022-08-04T15:33:56;101637.84;;;26.51;42.23
71778;BME280;59609;52.430;4.668;2022-08-04T15:36:46;101644.97;;;26.99;40.96
71778;BME280;59609;52.430;4.668;2022-08-04T15:39:25;101640.19;;;26.15;42.91
71778;BME280;59609;52.430;4.668;2022-08-04T15:42:08;101640.22;;;26.43;42.22
71778;BME280;59609;52.430;4.668;2022-08-04T15:44:57;101638.84;;;26.05;43.12
71778;BME280;59609;52.430;4.668;2022-08-04T15:47:27;101643.84;;;25.75;44.40
71778;BME280;59609;52.430;4.668;2022-08-04T15:50:11;101644.38;;;26.00;45.56
71778;BME280;59609;52.430;4.668;2022-08-04T15:58:02;101643.34;;;25.67;46.36
71778;BME280;59609;52.430;4.668;2022-08-04T16:03:40;101656.94;;;25.35;45.53
71778;BME280;59609;52.430;4.668;2022-08-04T16:16:30;101655.81;;;25.13;48.71
71778;BME280;59609;52.430;4.668;2022-08-04T16:21:52;101653.19;;;24.88;48.07
71778;BME280;59609;52.430;4.668;2022-08-04T16:24:27;101654.81;;;24.66;50.82
71778;BME280;59609;52.430;4.668;2022-08-04T16:26:57;101660.72;;;24.46;50.69
71778;BME280;59609;52.430;4.668;2022-08-04T16:32:05;101659.97;;;24.39;52.21
71778;BME280;59609;52.430;4.668;2022-08-04T16:34:31;101667.94;;;24.05;54.08
71778;BME280;59609;52.430;4.668;2022-08-04T16:37:05;101661.59;;;24.46;54.36
71778;BME280;59609;52.430;4.668;2022-08-04T16:39:31;101666.06;;;24.66;54.10
71778;BME280;59609;52.430;4.668;2022-08-04T16:41:57;101659.06;;;24.56;53.65
71778;BME280;59609;52.430;4.668;2022-08-04T16:44:35;101662.78;;;24.39;55.31
71778;BME280;59609;52.430;4.668;2022-08-04T16:47:04;101663.50;;;24.34;55.07
71778;BME280;59609;52.430;4.668;2022-08-04T16:49:31;101664.31;;;24.23;55.43
71778;BME280;59609;52.430;4.668;2022-08-04T16:52:04;101663.31;;;24.47;55.74
71778;BME280;59609;52.430;4.668;2022-08-04T16:54:31;101659.97;;;24.39;56.73
71778;BME280;59609;52.430;4.668;2022-08-04T16:56:58;101662.44;;;24.17;57.09
71778;BME280;59609;52.430;4.668;2022-08-04T16:59:23;101661.56;;;24.17;58.01